sensor_id;sensor_type;location;lat;lon;timestamp;P1;durP1;ratioP1;P2;durP2;ratioP2
25341;SDS011;13298;48.792;9.154;2023-04-01T00:00:47;1.55;;;0.50;;
25341;SDS011;13298;48.792;9.154;2023-04-01T00:03:13;3.20;;;0.65;;
25341;SDS011;13298;48.792;9.154;2023-04-01T00:05:39;3.40;;;0.60;;
25341;SDS011;13298;48.792;9.154;2023-04-01T00:08:05;2.67;;;0.60;;
25341;SDS011;13298;48.792;9.154;2023-04-01T00:10:30;1.48;;;0.52;;
25341;SDS011;13298;48.792;9.154;2023-04-01T00:12:56;6.78;;;0.73;;
25341;SDS011;13298;48.792;9.154;2023-04-01T00:15:22;3.53;;;0.60;;
25341;SDS011;13298;48.792;9.154;2023-04-01T00:17:47;0.90;;;0.50;;
25341;SDS011;13298;48.792;9.154;2023-04-01T00:20:14;1.85;;;0.60;;
25341;SDS011;13298;48.792;9.154;2023-04-01T00:22:40;2.80;;;0.63;;
25341;SDS011;13298;48.792;9.154;2023-04-01T00:25:06;3.35;;;0.70;;
25341;SDS011;13298;48.792;9.154;2023-04-01T00:27:32;2.85;;;0.50;;
25341;SDS011;13298;48.792;9.154;2023-04-01T00:29:58;1.10;;;0.47;;
25341;SDS011;13298;48.792;9.154;2023-04-01T00:32:24;1.35;;;0.63;;
25341;SDS011;13298;48.792;9.154;2023-04-01T00:34:51;3.05;;;0.65;;
25341;SDS011;13298;48.792;9.154;2023-04-01T00:37:17;2.15;;;0.57;;
25341;SDS011;13298;48.792;9.154;2023-04-01T00:39:45;1.85;;;0.77;;
25341;SDS011;13298;48.792;9.154;2023-04-01T00:42:12;3.85;;;0.90;;
25341;SDS011;13298;48.792;9.154;2023-04-01T00:44:38;2.90;;;0.70;;
25341;SDS011;13298;48.792;9.154;2023-04-01T00:47:05;2.28;;;0.60;;
25341;SDS011;13298;48.792;9.154;2023-04-01T00:49:32;2.58;;;0.60;;
25341;SDS011;13298;48.792;9.154;2023-04-01T00:52:04;1.83;;;0.60;;
25341;SDS011;13298;48.792;9.154;2023-04-01T00:54:32;2.58;;;0.77;;
25341;SDS011;13298;48.792;9.154;2023-04-01T00:57:02;2.80;;;0.70;;
25341;SDS011;13298;48.792;9.154;2023-04-01T00:59:39;1.27;;;0.50;;
25341;SDS011;13298;48.792;9.154;2023-04-01T01:02:10;3.95;;;1.15;;
25341;SDS011;13298;48.792;9.154;2023-04-01T01:04:37;2.65;;;0.60;;
25341;SDS011;13298;48.792;9.154;2023-04-01T01:07:12;2.33;;;0.70;;
25341;SDS011;13298;48.792;9.154;2023-04-01T01:15:47;2.25;;;0.70;;
25341;SDS011;13298;48.792;9.154;2023-04-01T01:18:29;4.00;;;0.63;;
25341;SDS011;13298;48.792;9.154;2023-04-01T01:21:06;1.52;;;0.60;;
25341;SDS011;13298;48.792;9.154;2023-04-01T01:38:26;5.68;;;0.90;;
25341;SDS011;13298;48.792;9.154;2023-04-01T01:44:28;2.88;;;0.68;;
25341;SDS011;13298;48.792;9.154;2023-04-01T01:46:55;2.20;;;0.80;;
25341;SDS011;13298;48.792;9.154;2023-04-01T01:49:22;4.18;;;0.95;;
25341;SDS011;13298;48.792;9.154;2023-04-01T01:51:48;1.50;;;0.68;;
25341;SDS011;13298;48.792;9.154;2023-04-01T01:54:15;1.95;;;0.68;;
25341;SDS011;13298;48.792;9.154;2023-04-01T01:56:44;3.47;;;0.60;;
25341;SDS011;13298;48.792;9.154;2023-04-01T01:59:14;4.00;;;0.80;;
25341;SDS011;13298;48.792;9.154;2023-04-01T02:01:43;4.30;;;0.63;;
25341;SDS011;13298;48.792;9.154;2023-04-01T02:04:14;1.73;;;0.77;;
25341;SDS011;13298;48.792;9.154;2023-04-01T02:06:43;2.47;;;0.60;;
25341;SDS011;13298;48.792;9.154;2023-04-01T02:09:17;0.88;;;0.47;;
25341;SDS011;13298;48.792;9.154;2023-04-01T02:11:57;3.25;;;0.45;;
25341;SDS011;13298;48.792;9.154;2023-04-01T02:14:36;2.22;;;0.55;;
25341;SDS011;13298;48.792;9.154;2023-04-01T02:17:09;0.40;;;0.40;;
25341;SDS011;13298;48.792;9.154;2023-04-01T02:19:44;1.63;;;0.40;;
25341;SDS011;13298;48.792;9.154;2023-04-01T02:22:16;1.17;;;0.50;;
25341;SDS011;13298;48.792;9.154;2023-04-01T02:24:52;2.58;;;0.50;;
25341;SDS011;13298;48.792;9.154;2023-04-01T02:27:23;2.08;;;0.40;;
25341;SDS011;13298;48.792;9.154;2023-04-01T02:29:49;1.85;;;0.57;;
25341;SDS011;13298;48.792;9.154;2023-04-01T02:32:16;2.13;;;0.70;;
25341;SDS011;13298;48.792;9.154;2023-04-01T02:34:44;1.63;;;0.52;;
25341;SDS011;13298;48.792;9.154;2023-04-01T02:37:11;2.97;;;0.63;;
25341;SDS011;13298;48.792;9.154;2023-04-01T02:39:38;1.65;;;0.70;;
25341;SDS011;13298;48.792;9.154;2023-04-01T02:42:05;1.10;;;0.60;;
25341;SDS011;13298;48.792;9.154;2023-04-01T02:44:31;1.00;;;0.43;;
25341;SDS011;13298;48.792;9.154;2023-04-01T02:46:57;1.95;;;0.52;;
25341;SDS011;13298;48.792;9.154;2023-04-01T02:49:23;1.60;;;0.47;;
25341;SDS011;13298;48.792;9.154;2023-04-01T02:51:48;3.20;;;0.50;;
25341;SDS011;13298;48.792;9.154;2023-04-01T02:54:14;1.02;;;0.43;;
25341;SDS011;13298;48.792;9.154;2023-04-01T02:56:40;2.10;;;0.63;;
25341;SDS011;13298;48.792;9.154;2023-04-01T02:59:06;0.80;;;0.40;;
25341;SDS011;13298;48.792;9.154;2023-04-01T03:01:31;0.55;;;0.28;;
25341;SDS011;13298;48.792;9.154;2023-04-01T03:03:57;0.60;;;0.38;;
25341;SDS011;13298;48.792;9.154;2023-04-01T03:06:23;1.40;;;0.35;;
25341;SDS011;13298;48.792;9.154;2023-04-01T03:08:48;3.60;;;0.50;;
25341;SDS011;13298;48.792;9.154;2023-04-01T03:11:14;1.20;;;0.52;;
25341;SDS011;13298;48.792;9.154;2023-04-01T03:13:40;1.45;;;0.35;;
25341;SDS011;13298;48.792;9.154;2023-04-01T03:16:06;1.08;;;0.30;;
25341;SDS011;13298;48.792;9.154;2023-04-01T03:18:31;0.77;;;0.43;;
25341;SDS011;13298;48.792;9.154;2023-04-01T03:20:57;0.75;;;0.20;;
25341;SDS011;13298;48.792;9.154;2023-04-01T03:23:45;1.60;;;0.20;;
25341;SDS011;13298;48.792;9.154;2023-04-01T03:26:10;0.17;;;0.17;;
25341;SDS011;13298;48.792;9.154;2023-04-01T03:28:36;2.78;;;0.40;;
25341;SDS011;13298;48.792;9.154;2023-04-01T03:31:02;2.95;;;0.43;;
25341;SDS011;13298;48.792;9.154;2023-04-01T03:33:28;0.60;;;0.30;;
25341;SDS011;13298;48.792;9.154;2023-04-01T03:35:54;0.43;;;0.28;;
25341;SDS011;13298;48.792;9.154;2023-04-01T03:38:19;0.65;;;0.15;;
25341;SDS011;13298;48.792;9.154;2023-04-01T03:40:45;1.30;;;0.40;;
25341;SDS011;13298;48.792;9.154;2023-04-01T03:43:11;1.40;;;0.28;;
25341;SDS011;13298;48.792;9.154;2023-04-01T03:45:43;0.50;;;0.20;;
25341;SDS011;13298;48.792;9.154;2023-04-01T03:48:15;0.30;;;0.25;;
25341;SDS011;13298;48.792;9.154;2023-04-01T03:50:42;2.35;;;0.40;;
25341;SDS011;13298;48.792;9.154;2023-04-01T03:53:08;1.95;;;0.50;;
25341;SDS011;13298;48.792;9.154;2023-04-01T03:55:37;1.55;;;0.50;;
25341;SDS011;13298;48.792;9.154;2023-04-01T03:58:04;0.63;;;0.30;;
25341;SDS011;13298;48.792;9.154;2023-04-01T04:00:30;2.05;;;0.43;;
25341;SDS011;13298;48.792;9.154;2023-04-01T04:02:56;0.47;;;0.30;;
25341;SDS011;13298;48.792;9.154;2023-04-01T04:05:23;2.70;;;0.43;;
25341;SDS011;13298;48.792;9.154;2023-04-01T04:07:50;2.42;;;0.40;;
25341;SDS011;13298;48.792;9.154;2023-04-01T04:10:16;0.88;;;0.28;;
25341;SDS011;13298;48.792;9.154;2023-04-01T04:12:42;3.85;;;0.60;;
25341;SDS011;13298;48.792;9.154;2023-04-01T04:15:08;0.60;;;0.28;;
25341;SDS011;13298;48.792;9.154;2023-04-01T04:17:34;4.28;;;0.50;;
25341;SDS011;13298;48.792;9.154;2023-04-01T04:20:00;0.70;;;0.40;;
25341;SDS011;13298;48.792;9.154;2023-04-01T04:22:26;1.33;;;0.50;;
25341;SDS011;13298;48.792;9.154;2023-04-01T04:24:51;1.42;;;0.25;;
25341;SDS011;13298;48.792;9.154;2023-04-01T04:27:17;0.57;;;0.35;;
25341;SDS011;13298;48.792;9.154;2023-04-01T04:29:43;0.93;;;0.32;;
25341;SDS011;13298;48.792;9.154;2023-04-01T04:32:09;2.30;;;0.50;;
25341;SDS011;13298;48.792;9.154;2023-04-01T04:34:35;1.30;;;0.40;;
25341;SDS011;13298;48.792;9.154;2023-04-01T04:37:00;1.00;;;0.40;;
25341;SDS011;13298;48.792;9.154;2023-04-01T04:39:26;0.80;;;0.30;;
25341;SDS011;13298;48.792;9.154;2023-04-01T04:41:52;0.38;;;0.20;;
25341;SDS011;13298;48.792;9.154;2023-04-01T04:44:17;1.67;;;0.40;;
25341;SDS011;13298;48.792;9.154;2023-04-01T04:46:43;1.38;;;0.60;;
25341;SDS011;13298;48.792;9.154;2023-04-01T04:49:09;1.10;;;0.60;;
25341;SDS011;13298;48.792;9.154;2023-04-01T04:51:35;1.83;;;0.47;;
25341;SDS011;13298;48.792;9.154;2023-04-01T04:54:01;2.00;;;0.57;;
25341;SDS011;13298;48.792;9.154;2023-04-01T04:56:31;2.75;;;0.40;;
25341;SDS011;13298;48.792;9.154;2023-04-01T04:58:57;2.15;;;0.40;;
25341;SDS011;13298;48.792;9.154;2023-04-01T05:01:24;2.20;;;0.50;;
25341;SDS011;13298;48.792;9.154;2023-04-01T05:03:50;2.08;;;0.43;;
25341;SDS011;13298;48.792;9.154;2023-04-01T05:06:17;1.85;;;0.57;;
25341;SDS011;13298;48.792;9.154;2023-04-01T05:08:43;0.68;;;0.40;;
25341;SDS011;13298;48.792;9.154;2023-04-01T05:11:14;2.40;;;0.60;;
25341;SDS011;13298;48.792;9.154;2023-04-01T05:13:42;1.65;;;0.20;;
25341;SDS011;13298;48.792;9.154;2023-04-01T05:16:09;2.72;;;0.40;;
25341;SDS011;13298;48.792;9.154;2023-04-01T05:18:37;0.45;;;0.30;;
25341;SDS011;13298;48.792;9.154;2023-04-01T05:21:03;0.63;;;0.28;;
25341;SDS011;13298;48.792;9.154;2023-04-01T05:23:32;2.53;;;0.40;;
25341;SDS011;13298;48.792;9.154;2023-04-01T05:25:58;1.45;;;0.40;;
25341;SDS011;13298;48.792;9.154;2023-04-01T05:28:27;2.92;;;0.50;;
25341;SDS011;13298;48.792;9.154;2023-04-01T05:30:53;0.95;;;0.43;;
25341;SDS011;13298;48.792;9.154;2023-04-01T05:33:18;0.57;;;0.40;;
25341;SDS011;13298;48.792;9.154;2023-04-01T05:35:44;2.28;;;0.73;;
25341;SDS011;13298;48.792;9.154;2023-04-01T05:38:10;1.65;;;0.80;;
25341;SDS011;13298;48.792;9.154;2023-04-01T05:40:35;1.88;;;0.50;;
25341;SDS011;13298;48.792;9.154;2023-04-01T05:43:01;1.92;;;0.60;;
25341;SDS011;13298;48.792;9.154;2023-04-01T05:45:27;3.28;;;0.60;;
25341;SDS011;13298;48.792;9.154;2023-04-01T05:47:53;2.72;;;0.70;;
25341;SDS011;13298;48.792;9.154;2023-04-01T05:50:19;1.13;;;0.45;;
25341;SDS011;13298;48.792;9.154;2023-04-01T05:52:44;1.30;;;0.50;;
25341;SDS011;13298;48.792;9.154;2023-04-01T05:55:10;3.60;;;0.52;;
25341;SDS011;13298;48.792;9.154;2023-04-01T05:57:36;2.45;;;0.57;;
25341;SDS011;13298;48.792;9.154;2023-04-01T06:00:02;2.38;;;0.70;;
25341;SDS011;13298;48.792;9.154;2023-04-01T06:02:29;1.42;;;0.50;;
25341;SDS011;13298;48.792;9.154;2023-04-01T06:05:02;1.75;;;0.45;;
25341;SDS011;13298;48.792;9.154;2023-04-01T06:07:39;1.20;;;0.50;;
25341;SDS011;13298;48.792;9.154;2023-04-01T06:10:16;1.88;;;0.63;;
25341;SDS011;13298;48.792;9.154;2023-04-01T06:12:56;3.30;;;0.65;;
25341;SDS011;13298;48.792;9.154;2023-04-01T06:15:33;1.67;;;0.50;;
25341;SDS011;13298;48.792;9.154;2023-04-01T06:24:50;0.90;;;0.38;;
25341;SDS011;13298;48.792;9.154;2023-04-01T06:27:45;1.90;;;0.40;;
25341;SDS011;13298;48.792;9.154;2023-04-01T06:36:32;2.97;;;0.43;;
25341;SDS011;13298;48.792;9.154;2023-04-01T06:45:58;1.75;;;0.50;;
25341;SDS011;13298;48.792;9.154;2023-04-01T06:54:12;0.95;;;0.40;;
25341;SDS011;13298;48.792;9.154;2023-04-01T06:56:48;2.13;;;0.52;;
25341;SDS011;13298;48.792;9.154;2023-04-01T06:59:21;2.63;;;0.40;;
25341;SDS011;13298;48.792;9.154;2023-04-01T07:01:51;1.95;;;0.50;;
25341;SDS011;13298;48.792;9.154;2023-04-01T07:04:20;1.58;;;0.40;;
25341;SDS011;13298;48.792;9.154;2023-04-01T07:07:04;1.77;;;0.38;;
25341;SDS011;13298;48.792;9.154;2023-04-01T07:09:51;1.98;;;0.57;;
25341;SDS011;13298;48.792;9.154;2023-04-01T07:12:22;0.95;;;0.38;;
25341;SDS011;13298;48.792;9.154;2023-04-01T07:15:01;1.27;;;0.40;;
25341;SDS011;13298;48.792;9.154;2023-04-01T07:17:39;1.55;;;0.50;;
25341;SDS011;13298;48.792;9.154;2023-04-01T07:20:24;1.45;;;0.50;;
25341;SDS011;13298;48.792;9.154;2023-04-01T07:22:58;1.50;;;0.50;;
25341;SDS011;13298;48.792;9.154;2023-04-01T07:25:37;3.05;;;0.50;;
25341;SDS011;13298;48.792;9.154;2023-04-01T07:28:11;1.02;;;0.40;;
25341;SDS011;13298;48.792;9.154;2023-04-01T07:30:48;2.08;;;0.38;;
25341;SDS011;13298;48.792;9.154;2023-04-01T07:33:25;1.37;;;0.60;;
25341;SDS011;13298;48.792;9.154;2023-04-01T07:36:33;0.85;;;0.43;;
25341;SDS011;13298;48.792;9.154;2023-04-01T07:39:22;3.97;;;0.47;;
25341;SDS011;13298;48.792;9.154;2023-04-01T07:50:28;0.80;;;0.40;;
25341;SDS011;13298;48.792;9.154;2023-04-01T07:53:19;1.70;;;0.63;;
25341;SDS011;13298;48.792;9.154;2023-04-01T07:58:33;1.13;;;0.43;;
25341;SDS011;13298;48.792;9.154;2023-04-01T08:01:20;0.52;;;0.32;;
25341;SDS011;13298;48.792;9.154;2023-04-01T08:04:04;3.80;;;0.60;;
25341;SDS011;13298;48.792;9.154;2023-04-01T08:09:39;5.22;;;0.60;;
25341;SDS011;13298;48.792;9.154;2023-04-01T08:15:45;1.83;;;0.40;;
25341;SDS011;13298;48.792;9.154;2023-04-01T08:18:32;2.30;;;0.50;;
25341;SDS011;13298;48.792;9.154;2023-04-01T08:21:28;2.05;;;0.65;;
25341;SDS011;13298;48.792;9.154;2023-04-01T08:24:13;2.47;;;0.50;;
25341;SDS011;13298;48.792;9.154;2023-04-01T08:26:57;2.45;;;0.55;;
25341;SDS011;13298;48.792;9.154;2023-04-01T08:32:41;1.60;;;0.63;;
25341;SDS011;13298;48.792;9.154;2023-04-01T08:35:18;1.50;;;0.38;;
25341;SDS011;13298;48.792;9.154;2023-04-01T08:37:58;1.75;;;0.50;;
25341;SDS011;13298;48.792;9.154;2023-04-01T08:53:12;3.90;;;0.75;;
25341;SDS011;13298;48.792;9.154;2023-04-01T08:56:04;0.40;;;0.30;;
25341;SDS011;13298;48.792;9.154;2023-04-01T09:10:24;2.22;;;0.45;;
25341;SDS011;13298;48.792;9.154;2023-04-01T09:13:31;2.60;;;0.63;;
25341;SDS011;13298;48.792;9.154;2023-04-01T09:22:50;2.33;;;0.50;;
25341;SDS011;13298;48.792;9.154;2023-04-01T09:28:34;0.82;;;0.40;;
25341;SDS011;13298;48.792;9.154;2023-04-01T09:34:25;0.60;;;0.30;;
25341;SDS011;13298;48.792;9.154;2023-04-01T09:37:17;0.52;;;0.20;;
25341;SDS011;13298;48.792;9.154;2023-04-01T09:57:48;0.73;;;0.15;;
25341;SDS011;13298;48.792;9.154;2023-04-01T10:12:50;1.15;;;0.22;;
25341;SDS011;13298;48.792;9.154;2023-04-01T10:15:42;4.38;;;0.50;;
25341;SDS011;13298;48.792;9.154;2023-04-01T10:42:34;1.23;;;0.30;;
25341;SDS011;13298;48.792;9.154;2023-04-01T10:51:37;0.32;;;0.28;;
25341;SDS011;13298;48.792;9.154;2023-04-01T10:57:19;0.10;;;0.10;;
25341;SDS011;13298;48.792;9.154;2023-04-01T11:03:46;0.00;;;0.00;;
25341;SDS011;13298;48.792;9.154;2023-04-01T11:22:13;0.10;;;0.10;;
25341;SDS011;13298;48.792;9.154;2023-04-01T11:25:11;0.15;;;0.10;;
25341;SDS011;13298;48.792;9.154;2023-04-01T11:28:14;0.20;;;0.20;;
25341;SDS011;13298;48.792;9.154;2023-04-01T11:42:52;0.20;;;0.15;;
25341;SDS011;13298;48.792;9.154;2023-04-01T11:45:31;0.30;;;0.20;;
25341;SDS011;13298;48.792;9.154;2023-04-01T11:48:13;0.35;;;0.25;;
25341;SDS011;13298;48.792;9.154;2023-04-01T11:51:05;0.20;;;0.20;;
25341;SDS011;13298;48.792;9.154;2023-04-01T12:00:46;0.25;;;0.20;;
25341;SDS011;13298;48.792;9.154;2023-04-01T12:13:05;0.25;;;0.22;;
25341;SDS011;13298;48.792;9.154;2023-04-01T12:32:09;0.10;;;0.10;;
25341;SDS011;13298;48.792;9.154;2023-04-01T12:37:35;0.20;;;0.20;;
25341;SDS011;13298;48.792;9.154;2023-04-01T12:49:22;0.20;;;0.05;;
25341;SDS011;13298;48.792;9.154;2023-04-01T12:51:50;0.15;;;0.10;;
25341;SDS011;13298;48.792;9.154;2023-04-01T12:54:57;0.28;;;0.22;;
25341;SDS011;13298;48.792;9.154;2023-04-01T12:58:06;0.38;;;0.10;;
25341;SDS011;13298;48.792;9.154;2023-04-01T13:09:45;0.10;;;0.10;;
25341;SDS011;13298;48.792;9.154;2023-04-01T13:12:51;0.25;;;0.20;;
25341;SDS011;13298;48.792;9.154;2023-04-01T13:24:10;0.17;;;0.17;;
25341;SDS011;13298;48.792;9.154;2023-04-01T13:30:07;0.13;;;0.10;;
25341;SDS011;13298;48.792;9.154;2023-04-01T13:32:50;0.20;;;0.20;;
25341;SDS011;13298;48.792;9.154;2023-04-01T13:44:41;0.15;;;0.13;;
25341;SDS011;13298;48.792;9.154;2023-04-01T13:47:27;0.10;;;0.10;;
25341;SDS011;13298;48.792;9.154;2023-04-01T13:59:32;0.38;;;0.10;;
25341;SDS011;13298;48.792;9.154;2023-04-01T14:04:41;0.13;;;0.10;;
25341;SDS011;13298;48.792;9.154;2023-04-01T14:17:28;0.85;;;0.20;;
25341;SDS011;13298;48.792;9.154;2023-04-01T14:20:22;0.20;;;0.20;;
25341;SDS011;13298;48.792;9.154;2023-04-01T14:26:30;0.10;;;0.10;;
25341;SDS011;13298;48.792;9.154;2023-04-01T14:29:36;0.20;;;0.20;;
25341;SDS011;13298;48.792;9.154;2023-04-01T14:32:42;0.10;;;0.10;;
25341;SDS011;13298;48.792;9.154;2023-04-01T14:35:21;1.23;;;0.10;;
25341;SDS011;13298;48.792;9.154;2023-04-01T14:38:47;0.15;;;0.10;;
25341;SDS011;13298;48.792;9.154;2023-04-01T14:47:50;0.17;;;0.10;;
25341;SDS011;13298;48.792;9.154;2023-04-01T14:50:22;0.20;;;0.20;;
25341;SDS011;13298;48.792;9.154;2023-04-01T14:55:54;1.45;;;0.20;;
25341;SDS011;13298;48.792;9.154;2023-04-01T14:58:23;0.10;;;0.10;;
25341;SDS011;13298;48.792;9.154;2023-04-01T15:10:17;0.10;;;0.10;;
25341;SDS011;13298;48.792;9.154;2023-04-01T15:19:12;4.47;;;0.20;;
25341;SDS011;13298;48.792;9.154;2023-04-01T15:24:52;0.30;;;0.10;;
25341;SDS011;13298;48.792;9.154;2023-04-01T15:27:51;0.10;;;0.10;;
25341;SDS011;13298;48.792;9.154;2023-04-01T15:33:27;0.25;;;0.10;;
25341;SDS011;13298;48.792;9.154;2023-04-01T15:39:15;0.60;;;0.20;;
25341;SDS011;13298;48.792;9.154;2023-04-01T15:42:28;0.32;;;0.10;;
25341;SDS011;13298;48.792;9.154;2023-04-01T15:45:13;0.20;;;0.20;;
25341;SDS011;13298;48.792;9.154;2023-04-01T15:47:52;0.32;;;0.28;;
25341;SDS011;13298;48.792;9.154;2023-04-01T15:50:54;0.28;;;0.20;;
25341;SDS011;13298;48.792;9.154;2023-04-01T15:53:35;0.15;;;0.15;;
25341;SDS011;13298;48.792;9.154;2023-04-01T16:02:34;2.65;;;0.20;;
25341;SDS011;13298;48.792;9.154;2023-04-01T16:08:09;0.10;;;0.10;;
25341;SDS011;13298;48.792;9.154;2023-04-01T16:11:04;0.22;;;0.20;;
25341;SDS011;13298;48.792;9.154;2023-04-01T16:13:59;0.50;;;0.20;;
25341;SDS011;13298;48.792;9.154;2023-04-01T16:24:48;0.17;;;0.17;;
25341;SDS011;13298;48.792;9.154;2023-04-01T16:27:35;0.30;;;0.20;;
25341;SDS011;13298;48.792;9.154;2023-04-01T16:39:49;3.10;;;0.20;;
25341;SDS011;13298;48.792;9.154;2023-04-01T16:42:34;1.63;;;0.40;;
25341;SDS011;13298;48.792;9.154;2023-04-01T16:45:30;1.55;;;0.73;;
25341;SDS011;13298;48.792;9.154;2023-04-01T16:48:27;0.57;;;0.30;;
25341;SDS011;13298;48.792;9.154;2023-04-01T16:51:15;3.97;;;0.40;;
25341;SDS011;13298;48.792;9.154;2023-04-01T16:53:43;0.85;;;0.22;;
25341;SDS011;13298;48.792;9.154;2023-04-01T16:56:28;2.15;;;0.20;;
25341;SDS011;13298;48.792;9.154;2023-04-01T16:59:14;0.10;;;0.10;;
25341;SDS011;13298;48.792;9.154;2023-04-01T17:04:43;1.85;;;0.40;;
25341;SDS011;13298;48.792;9.154;2023-04-01T17:10:31;0.77;;;0.32;;
25341;SDS011;13298;48.792;9.154;2023-04-01T17:13:19;0.52;;;0.38;;
25341;SDS011;13298;48.792;9.154;2023-04-01T17:16:01;2.13;;;0.40;;
25341;SDS011;13298;48.792;9.154;2023-04-01T17:25:02;0.68;;;0.40;;
25341;SDS011;13298;48.792;9.154;2023-04-01T17:27:54;0.75;;;0.40;;
25341;SDS011;13298;48.792;9.154;2023-04-01T17:30:53;1.30;;;0.30;;
25341;SDS011;13298;48.792;9.154;2023-04-01T17:33:57;1.88;;;0.57;;
25341;SDS011;13298;48.792;9.154;2023-04-01T17:42:41;1.05;;;0.60;;
25341;SDS011;13298;48.792;9.154;2023-04-01T17:45:49;2.10;;;0.80;;
25341;SDS011;13298;48.792;9.154;2023-04-01T17:48:35;0.47;;;0.40;;
25341;SDS011;13298;48.792;9.154;2023-04-01T18:00:26;1.25;;;0.50;;
25341;SDS011;13298;48.792;9.154;2023-04-01T18:09:01;1.42;;;0.60;;
25341;SDS011;13298;48.792;9.154;2023-04-01T18:15:00;1.58;;;0.60;;
25341;SDS011;13298;48.792;9.154;2023-04-01T18:26:28;1.10;;;0.30;;
25341;SDS011;13298;48.792;9.154;2023-04-01T18:31:49;1.48;;;0.57;;
25341;SDS011;13298;48.792;9.154;2023-04-01T18:34:29;1.75;;;0.70;;
25341;SDS011;13298;48.792;9.154;2023-04-01T18:38:18;0.75;;;0.60;;
25341;SDS011;13298;48.792;9.154;2023-04-01T18:41:15;3.08;;;0.70;;
25341;SDS011;13298;48.792;9.154;2023-04-01T18:53:23;1.10;;;0.50;;
25341;SDS011;13298;48.792;9.154;2023-04-01T18:56:11;1.25;;;0.43;;
25341;SDS011;13298;48.792;9.154;2023-04-01T18:58:54;0.50;;;0.50;;
25341;SDS011;13298;48.792;9.154;2023-04-01T19:01:42;4.53;;;0.50;;
25341;SDS011;13298;48.792;9.154;2023-04-01T19:07:43;0.50;;;0.40;;
25341;SDS011;13298;48.792;9.154;2023-04-01T19:25:14;0.68;;;0.50;;
25341;SDS011;13298;48.792;9.154;2023-04-01T19:27:52;2.58;;;0.68;;
25341;SDS011;13298;48.792;9.154;2023-04-01T19:30:36;2.15;;;0.60;;
25341;SDS011;13298;48.792;9.154;2023-04-01T19:51:12;1.48;;;0.75;;
25341;SDS011;13298;48.792;9.154;2023-04-01T19:57:17;1.98;;;0.80;;
25341;SDS011;13298;48.792;9.154;2023-04-01T20:00:07;2.45;;;0.70;;
25341;SDS011;13298;48.792;9.154;2023-04-01T20:05:35;2.92;;;0.75;;
25341;SDS011;13298;48.792;9.154;2023-04-01T20:11:06;0.98;;;0.55;;
25341;SDS011;13298;48.792;9.154;2023-04-01T20:17:24;3.33;;;0.73;;
25341;SDS011;13298;48.792;9.154;2023-04-01T20:20:01;2.20;;;0.63;;
25341;SDS011;13298;48.792;9.154;2023-04-01T20:28:37;0.52;;;0.32;;
25341;SDS011;13298;48.792;9.154;2023-04-01T20:30:54;1.23;;;0.50;;
25341;SDS011;13298;48.792;9.154;2023-04-01T20:33:53;1.45;;;0.50;;
25341;SDS011;13298;48.792;9.154;2023-04-01T20:39:24;1.27;;;0.50;;
25341;SDS011;13298;48.792;9.154;2023-04-01T20:42:26;0.90;;;0.57;;
25341;SDS011;13298;48.792;9.154;2023-04-01T20:45:13;1.27;;;0.57;;
25341;SDS011;13298;48.792;9.154;2023-04-01T20:50:56;1.67;;;0.65;;
25341;SDS011;13298;48.792;9.154;2023-04-01T20:56:28;0.98;;;0.50;;
25341;SDS011;13298;48.792;9.154;2023-04-01T21:08:14;1.60;;;0.60;;
25341;SDS011;13298;48.792;9.154;2023-04-01T21:11:04;1.70;;;0.68;;
25341;SDS011;13298;48.792;9.154;2023-04-01T21:16:39;1.17;;;0.50;;
25341;SDS011;13298;48.792;9.154;2023-04-01T21:19:42;1.08;;;0.68;;
25341;SDS011;13298;48.792;9.154;2023-04-01T21:22:46;1.13;;;0.60;;
25341;SDS011;13298;48.792;9.154;2023-04-01T21:25:38;2.38;;;0.50;;
25341;SDS011;13298;48.792;9.154;2023-04-01T21:28:47;1.83;;;0.80;;
25341;SDS011;13298;48.792;9.154;2023-04-01T21:34:03;1.10;;;0.50;;
25341;SDS011;13298;48.792;9.154;2023-04-01T21:42:39;0.40;;;0.40;;
25341;SDS011;13298;48.792;9.154;2023-04-01T22:02:58;1.77;;;0.70;;
25341;SDS011;13298;48.792;9.154;2023-04-01T22:08:30;0.93;;;0.63;;
25341;SDS011;13298;48.792;9.154;2023-04-01T22:24:54;1.00;;;0.47;;
25341;SDS011;13298;48.792;9.154;2023-04-01T22:27:36;0.90;;;0.60;;
25341;SDS011;13298;48.792;9.154;2023-04-01T22:30:23;1.17;;;0.55;;
25341;SDS011;13298;48.792;9.154;2023-04-01T22:38:54;0.45;;;0.45;;
25341;SDS011;13298;48.792;9.154;2023-04-01T22:41:38;1.45;;;0.60;;
25341;SDS011;13298;48.792;9.154;2023-04-01T22:50:26;0.60;;;0.30;;
25341;SDS011;13298;48.792;9.154;2023-04-01T22:55:37;2.20;;;0.50;;
25341;SDS011;13298;48.792;9.154;2023-04-01T22:58:08;0.28;;;0.28;;
25341;SDS011;13298;48.792;9.154;2023-04-01T23:00:47;0.65;;;0.40;;
25341;SDS011;13298;48.792;9.154;2023-04-01T23:05:58;0.25;;;0.25;;
25341;SDS011;13298;48.792;9.154;2023-04-01T23:11:35;1.30;;;0.47;;
25341;SDS011;13298;48.792;9.154;2023-04-01T23:14:44;1.60;;;0.52;;
25341;SDS011;13298;48.792;9.154;2023-04-01T23:25:56;0.57;;;0.30;;
25341;SDS011;13298;48.792;9.154;2023-04-01T23:28:43;0.40;;;0.25;;
25341;SDS011;13298;48.792;9.154;2023-04-01T23:33:54;0.70;;;0.32;;
25341;SDS011;13298;48.792;9.154;2023-04-01T23:36:23;0.82;;;0.40;;
25341;SDS011;13298;48.792;9.154;2023-04-01T23:38:50;0.73;;;0.40;;
25341;SDS011;13298;48.792;9.154;2023-04-01T23:41:23;0.55;;;0.40;;
25341;SDS011;13298;48.792;9.154;2023-04-01T23:44:01;0.70;;;0.40;;
25341;SDS011;13298;48.792;9.154;2023-04-01T23:46:31;0.70;;;0.32;;
25341;SDS011;13298;48.792;9.154;2023-04-01T23:49:00;0.75;;;0.43;;
25341;SDS011;13298;48.792;9.154;2023-04-01T23:51:28;0.50;;;0.30;;
25341;SDS011;13298;48.792;9.154;2023-04-01T23:54:11;0.43;;;0.40;;
25341;SDS011;13298;48.792;9.154;2023-04-01T23:56:51;0.95;;;0.60;;
25341;SDS011;13298;48.792;9.154;2023-04-01T23:59:24;1.25;;;0.40;;
